Time;durP1;ratioP1;P1;durP2;ratioP2;P2;SDS_P1;SDS_P2;PMS_P1;PMS_P2;Temp;Humidity;BMP_temperature;BMP_pressure;BME280_temperature;BME280_humidity;BME280_pressure;Samples;Min_cycle;Max_cycle;Signal;HPM_P1;HPM_P2
2023/05/03 00:02:21;;;;;;;2.22;1.35;;;;;;;;;;10310207;28;20022;-57
2023/05/03 00:07:21;;;;;;;4.28;1.30;;;;;;;;;;10304075;28;20358;-54
2023/05/03 00:12:22;;;;;;;2.97;1.48;;;;;;;;;;10319053;28;20448;-53
2023/05/03 00:17:22;;;;;;;4.18;1.50;;;;;;;;;;10316003;28;20053;-53
2023/05/03 00:22:23;;;;;;;3.78;1.60;;;;;;;;;;10311297;28;20591;-58
2023/05/03 00:27:24;;;;;;;1.23;1.13;;;;;;;;;;10304672;28;20030;-57
2023/05/03 00:32:24;;;;;;;4.32;1.20;;;;;;;;;;10318563;28;20035;-57
2023/05/03 00:37:26;;;;;;;1.88;1.30;;;;;;;;;;10314600;28;20056;-58
2023/05/03 00:42:26;;;;;;;1.75;1.20;;;;;;;;;;10292013;28;20050;-59
2023/05/03 00:47:27;;;;;;;6.72;1.40;;;;;;;;;;10313043;28;20536;-55
2023/05/03 00:52:28;;;;;;;1.80;1.40;;;;;;;;;;10318022;28;20437;-54
2023/05/03 00:57:29;;;;;;;1.15;1.10;;;;;;;;;;10305049;28;20134;-52
2023/05/03 01:02:30;;;;;;;2.53;1.38;;;;;;;;;;10295950;28;20034;-50
2023/05/03 01:08:07;;;;;;;1.40;1.30;;;;;;;;;;10301730;28;20026;-51
2023/05/03 01:13:35;;;;;;;1.30;1.20;;;;;;;;;;10308685;28;20030;-50
2023/05/03 01:18:43;;;;;;;2.63;1.40;;;;;;;;;;10315662;28;20043;-52
2023/05/03 01:24:16;;;;;;;2.17;1.40;;;;;;;;;;10318829;28;20468;-51
2023/05/03 01:29:17;;;;;;;2.33;1.40;;;;;;;;;;10307003;28;20038;-51
2023/05/03 01:34:35;;;;;;;1.27;1.17;;;;;;;;;;10292784;28;20516;-52
2023/05/03 01:40:00;;;;;;;6.22;1.30;;;;;;;;;;10299565;28;20142;-53
2023/05/03 01:45:03;;;;;;;1.30;1.20;;;;;;;;;;10313082;28;20067;-55
2023/05/03 01:50:04;;;;;;;3.97;1.52;;;;;;;;;;10286362;28;20046;-54
2023/05/03 01:55:05;;;;;;;1.25;1.15;;;;;;;;;;10322275;28;20030;-53
2023/05/03 02:00:07;;;;;;;1.20;1.00;;;;;;;;;;10312092;28;20035;-54
2023/05/03 02:05:10;;;;;;;1.02;1.00;;;;;;;;;;10320527;28;20046;-54
2023/05/03 02:10:13;;;;;;;1.48;1.10;;;;;;;;;;10317458;28;20032;-55
2023/05/03 02:15:14;;;;;;;2.42;1.23;;;;;;;;;;10322373;28;20030;-56
2023/05/03 02:20:15;;;;;;;4.68;1.20;;;;;;;;;;10319597;28;20033;-56
2023/05/03 02:25:15;;;;;;;1.10;1.00;;;;;;;;;;10330915;28;20034;-57
2023/05/03 02:30:16;;;;;;;3.05;1.30;;;;;;;;;;10318348;28;20057;-57
2023/05/03 02:35:16;;;;;;;2.00;1.10;;;;;;;;;;10320255;28;20027;-58
2023/05/03 02:40:17;;;;;;;1.70;1.10;;;;;;;;;;10330684;28;20038;-54
2023/05/03 02:45:18;;;;;;;0.95;0.95;;;;;;;;;;10292684;28;20064;-58
2023/05/03 02:50:18;;;;;;;3.53;1.23;;;;;;;;;;10300960;28;20289;-52
2023/05/03 02:55:19;;;;;;;2.15;1.10;;;;;;;;;;10323101;28;20057;-55
2023/05/03 03:00:20;;;;;;;1.42;1.33;;;;;;;;;;10328346;28;20069;-55
2023/05/03 03:05:21;;;;;;;2.22;1.25;;;;;;;;;;10330179;28;20066;-54
2023/05/03 03:10:21;;;;;;;1.20;1.10;;;;;;;;;;10328994;28;20046;-55
2023/05/03 03:15:22;;;;;;;2.72;1.55;;;;;;;;;;10328569;28;20037;-55
2023/05/03 03:20:23;;;;;;;1.13;1.02;;;;;;;;;;10329361;28;20030;-54
2023/05/03 03:25:23;;;;;;;1.40;1.10;;;;;;;;;;10329626;28;20030;-53
2023/05/03 03:30:24;;;;;;;1.17;1.08;;;;;;;;;;10330133;28;20026;-55
2023/05/03 03:35:25;;;;;;;0.90;0.90;;;;;;;;;;10313943;28;20159;-53
2023/05/03 03:40:26;;;;;;;1.10;1.00;;;;;;;;;;10301344;28;20023;-59
2023/05/03 03:45:26;;;;;;;1.77;1.30;;;;;;;;;;10295268;28;20509;-56
2023/05/03 03:50:27;;;;;;;2.38;1.17;;;;;;;;;;10304879;28;20070;-51
2023/05/03 03:55:28;;;;;;;1.25;1.00;;;;;;;;;;10314012;28;20263;-52
2023/05/03 04:00:28;;;;;;;1.23;0.93;;;;;;;;;;10311794;28;20034;-55
2023/05/03 04:05:30;;;;;;;1.08;1.00;;;;;;;;;;10328426;28;20023;-55
2023/05/03 04:10:30;;;;;;;1.25;1.15;;;;;;;;;;10313857;28;20037;-55
2023/05/03 04:15:31;;;;;;;1.10;1.00;;;;;;;;;;10327686;28;20036;-53
2023/05/03 04:20:32;;;;;;;1.33;1.20;;;;;;;;;;10302120;28;20481;-51
2023/05/03 04:25:35;;;;;;;3.30;1.20;;;;;;;;;;10323357;28;20038;-53
2023/05/03 04:30:36;;;;;;;1.25;1.10;;;;;;;;;;10326145;28;20095;-54
2023/05/03 04:35:37;;;;;;;3.60;1.00;;;;;;;;;;10309799;28;20089;-57
2023/05/03 04:40:38;;;;;;;1.20;1.10;;;;;;;;;;10310624;28;20433;-54
2023/05/03 04:45:39;;;;;;;1.20;1.10;;;;;;;;;;10320164;28;20047;-54
2023/05/03 04:50:41;;;;;;;6.95;1.08;;;;;;;;;;10315353;28;20466;-55
2023/05/03 04:55:41;;;;;;;1.10;1.00;;;;;;;;;;10301680;28;20026;-54
2023/05/03 05:00:45;;;;;;;2.80;1.30;;;;;;;;;;10303696;28;20038;-55
2023/05/03 05:05:45;;;;;;;1.25;1.15;;;;;;;;;;10308534;28;20058;-52
2023/05/03 05:10:46;;;;;;;0.82;0.82;;;;;;;;;;10305167;28;20026;-51
2023/05/03 05:15:46;;;;;;;1.60;1.10;;;;;;;;;;10308254;28;20042;-52
2023/05/03 05:20:47;;;;;;;0.90;0.90;;;;;;;;;;10290256;28;20097;-57
2023/05/03 05:25:47;;;;;;;0.93;0.90;;;;;;;;;;10313707;28;20030;-58
2023/05/03 05:30:48;;;;;;;2.00;1.30;;;;;;;;;;10267407;28;20085;-58
2023/05/03 05:35:49;;;;;;;3.25;1.48;;;;;;;;;;10298558;28;20634;-60
2023/05/03 05:40:49;;;;;;;1.25;1.15;;;;;;;;;;10306035;28;20026;-60
2023/05/03 05:45:50;;;;;;;3.75;1.25;;;;;;;;;;10299243;28;20046;-60
2023/05/03 05:50:50;;;;;;;1.30;1.20;;;;;;;;;;10299247;28;20054;-56
2023/05/03 05:55:51;;;;;;;1.92;1.30;;;;;;;;;;10297815;28;20035;-55
2023/05/03 06:00:54;;;;;;;4.18;1.60;;;;;;;;;;10309952;28;20089;-57
2023/05/03 06:05:54;;;;;;;1.35;1.25;;;;;;;;;;10296516;28;20031;-54
2023/05/03 06:10:55;;;;;;;2.63;1.40;;;;;;;;;;10306028;28;20031;-56
2023/05/03 06:15:56;;;;;;;6.20;2.03;;;;;;;;;;10306864;28;20030;-55
2023/05/03 06:20:56;;;;;;;9.50;1.90;;;;;;;;;;10315414;28;20108;-53
2023/05/03 06:25:57;;;;;;;6.60;1.85;;;;;;;;;;10304145;28;20038;-57
2023/05/03 06:30:57;;;;;;;24.17;2.08;;;;;;;;;;10320889;28;20088;-56
2023/05/03 06:35:58;;;;;;;14.50;2.10;;;;;;;;;;10319332;28;20520;-58
2023/05/03 06:40:58;;;;;;;20.02;2.30;;;;;;;;;;10316403;28;20478;-60
2023/05/03 06:45:59;;;;;;;4.97;1.70;;;;;;;;;;10318414;28;20129;-54
2023/05/03 06:51:00;;;;;;;10.43;1.52;;;;;;;;;;10327249;28;20034;-54
2023/05/03 06:56:02;;;;;;;4.90;1.35;;;;;;;;;;10306931;28;20045;-56
2023/05/03 07:01:03;;;;;;;3.58;1.58;;;;;;;;;;10313353;28;20122;-56
2023/05/03 07:06:04;;;;;;;3.33;1.58;;;;;;;;;;10311490;28;20386;-60
2023/05/03 07:11:05;;;;;;;5.55;1.80;;;;;;;;;;10318458;28;20034;-52
2023/05/03 07:16:06;;;;;;;8.65;1.80;;;;;;;;;;10323612;28;20378;-59
2023/05/03 07:21:06;;;;;;;6.18;1.60;;;;;;;;;;10326798;28;20042;-58
2023/05/03 07:26:07;;;;;;;5.03;2.03;;;;;;;;;;10302178;28;20394;-55
2023/05/03 07:31:08;;;;;;;10.40;1.55;;;;;;;;;;10306290;28;20027;-59
2023/05/03 07:36:08;;;;;;;8.18;1.48;;;;;;;;;;10320014;28;20022;-59
2023/05/03 07:41:09;;;;;;;8.82;1.70;;;;;;;;;;10313910;28;20030;-58
2023/05/03 07:46:10;;;;;;;10.98;1.70;;;;;;;;;;10323733;28;20502;-57
2023/05/03 07:51:10;;;;;;;2.08;1.40;;;;;;;;;;10306171;28;20038;-54
2023/05/03 07:56:11;;;;;;;5.53;1.50;;;;;;;;;;10326181;28;20034;-53
2023/05/03 08:01:12;;;;;;;1.80;1.20;;;;;;;;;;10315053;28;20167;-54
2023/05/03 08:06:12;;;;;;;2.17;1.40;;;;;;;;;;10303833;28;20088;-60
2023/05/03 08:11:13;;;;;;;5.97;1.60;;;;;;;;;;10301449;28;20047;-60
2023/05/03 08:16:13;;;;;;;3.03;1.63;;;;;;;;;;10314258;28;20034;-59
2023/05/03 08:21:17;;;;;;;3.58;1.30;;;;;;;;;;10319586;28;20367;-55
2023/05/03 08:26:18;;;;;;;3.47;1.60;;;;;;;;;;10294212;28;20022;-59
2023/05/03 08:31:19;;;;;;;3.25;1.50;;;;;;;;;;10302226;28;20425;-56
2023/05/03 08:36:20;;;;;;;2.10;1.30;;;;;;;;;;10313838;28;20065;-56
2023/05/03 08:41:29;;;;;;;1.30;1.20;;;;;;;;;;10321397;28;20026;-56
2023/05/03 08:46:29;;;;;;;1.58;1.20;;;;;;;;;;10312187;28;20104;-53
2023/05/03 08:51:30;;;;;;;3.97;1.65;;;;;;;;;;10299322;28;20435;-50
2023/05/03 08:56:42;;;;;;;1.45;1.20;;;;;;;;;;10275185;28;20408;-53
2023/05/03 09:01:42;;;;;;;1.17;1.17;;;;;;;;;;10304792;28;20062;-59
2023/05/03 09:06:43;;;;;;;1.42;1.13;;;;;;;;;;10313646;28;20026;-54
2023/05/03 09:11:44;;;;;;;1.40;1.30;;;;;;;;;;10299408;28;20058;-56
2023/05/03 09:16:45;;;;;;;3.05;1.10;;;;;;;;;;10311134;28;20023;-56
2023/05/03 09:21:46;;;;;;;2.08;1.10;;;;;;;;;;10286717;28;20494;-55
2023/05/03 09:26:50;;;;;;;1.30;1.20;;;;;;;;;;10298630;28;20093;-53
2023/05/03 09:32:05;;;;;;;3.03;1.35;;;;;;;;;;10288484;28;20035;-56
2023/05/03 09:37:05;;;;;;;1.42;1.17;;;;;;;;;;10313167;28;20029;-53
2023/05/03 09:42:18;;;;;;;3.40;1.30;;;;;;;;;;10307764;28;20092;-52
2023/05/03 09:47:20;;;;;;;2.85;1.30;;;;;;;;;;10315902;28;20061;-53
2023/05/03 09:52:21;;;;;;;3.30;1.27;;;;;;;;;;10303628;28;20435;-57
2023/05/03 09:57:22;;;;;;;2.42;1.20;;;;;;;;;;10275688;28;20027;-58
2023/05/03 10:02:23;;;;;;;2.97;1.60;;;;;;;;;;10288593;28;20027;-56
2023/05/03 10:07:27;;;;;;;3.30;1.48;;;;;;;;;;10277665;28;20474;-54
2023/05/03 10:12:28;;;;;;;1.95;1.23;;;;;;;;;;10298543;28;20094;-55
2023/05/03 10:17:33;;;;;;;2.22;1.20;;;;;;;;;;10297632;28;20122;-54
2023/05/03 10:23:10;;;;;;;1.65;1.10;;;;;;;;;;10296691;28;20455;-55
2023/05/03 10:28:11;;;;;;;1.40;1.30;;;;;;;;;;10314282;28;20489;-56
2023/05/03 10:33:28;;;;;;;3.45;1.45;;;;;;;;;;10314363;28;20030;-57
2023/05/03 10:38:30;;;;;;;2.35;1.20;;;;;;;;;;10307444;28;20031;-55
2023/05/03 10:43:34;;;;;;;1.38;1.25;;;;;;;;;;10327910;28;20042;-55
2023/05/03 10:48:35;;;;;;;2.03;1.20;;;;;;;;;;10303217;28;20023;-54
2023/05/03 10:53:39;;;;;;;1.85;1.10;;;;;;;;;;10314263;28;20436;-54
2023/05/03 10:58:48;;;;;;;3.65;1.20;;;;;;;;;;10307771;28;20034;-54
2023/05/03 11:04:11;;;;;;;4.43;1.30;;;;;;;;;;10303270;28;20023;-54
2023/05/03 11:09:13;;;;;;;2.78;1.38;;;;;;;;;;10297224;28;20129;-53
2023/05/03 11:14:14;;;;;;;3.05;1.08;;;;;;;;;;10304263;28;20120;-59
2023/05/03 11:19:15;;;;;;;3.85;1.20;;;;;;;;;;10307638;28;20030;-51
2023/05/03 11:24:15;;;;;;;1.08;1.00;;;;;;;;;;10314573;28;20027;-53
2023/05/03 11:29:17;;;;;;;1.52;1.13;;;;;;;;;;10311937;28;20035;-55
2023/05/03 11:34:18;;;;;;;4.68;1.25;;;;;;;;;;10305837;28;20034;-58
2023/05/03 11:39:18;;;;;;;2.05;1.30;;;;;;;;;;10306369;28;20026;-53
2023/05/03 11:44:19;;;;;;;3.05;1.20;;;;;;;;;;10305147;28;20453;-53
2023/05/03 11:49:29;;;;;;;1.20;1.10;;;;;;;;;;10306881;28;20038;-57
2023/05/03 11:54:39;;;;;;;1.30;1.20;;;;;;;;;;10297404;28;20034;-58
2023/05/03 11:59:48;;;;;;;2.97;1.05;;;;;;;;;;10310567;28;20319;-59
2023/05/03 12:04:49;;;;;;;2.28;1.02;;;;;;;;;;10316941;28;20080;-53
2023/05/03 12:09:49;;;;;;;1.92;1.17;;;;;;;;;;10304402;28;20073;-55
2023/05/03 12:15:00;;;;;;;1.52;1.10;;;;;;;;;;10311700;28;20049;-51
2023/05/03 12:20:19;;;;;;;2.88;1.48;;;;;;;;;;10316419;28;20026;-54
2023/05/03 12:25:21;;;;;;;1.42;1.20;;;;;;;;;;10305447;28;20203;-53
2023/05/03 12:30:22;;;;;;;4.82;0.98;;;;;;;;;;10293355;28;20042;-57
2023/05/03 12:35:22;;;;;;;1.15;1.00;;;;;;;;;;10301937;28;20043;-56
2023/05/03 12:40:27;;;;;;;3.92;1.10;;;;;;;;;;10301828;28;20033;-53
2023/05/03 12:45:30;;;;;;;5.30;1.20;;;;;;;;;;10305186;28;20039;-53
2023/05/03 12:50:31;;;;;;;1.73;1.20;;;;;;;;;;10317123;28;20034;-50
2023/05/03 12:55:33;;;;;;;2.55;1.13;;;;;;;;;;10315357;28;20023;-58
2023/05/03 13:00:33;;;;;;;2.72;1.20;;;;;;;;;;10315640;28;20401;-51
2023/05/03 13:05:34;;;;;;;2.47;1.42;;;;;;;;;;10318880;28;20295;-52
2023/05/03 13:10:37;;;;;;;2.03;1.20;;;;;;;;;;10304487;28;20030;-59
2023/05/03 13:15:39;;;;;;;1.55;1.25;;;;;;;;;;10290137;28;20057;-59
2023/05/03 13:20:39;;;;;;;1.08;0.98;;;;;;;;;;10301808;28;20035;-51
2023/05/03 13:25:40;;;;;;;3.47;1.00;;;;;;;;;;10300181;28;20027;-60
2023/05/03 13:30:40;;;;;;;1.05;1.02;;;;;;;;;;10313765;28;20498;-51
2023/05/03 13:35:41;;;;;;;1.48;1.20;;;;;;;;;;10316184;28;20030;-54
2023/05/03 13:40:41;;;;;;;1.25;1.10;;;;;;;;;;10290216;28;20034;-52
2023/05/03 13:45:42;;;;;;;1.25;0.90;;;;;;;;;;10310501;28;20050;-59
2023/05/03 13:50:43;;;;;;;1.58;1.00;;;;;;;;;;10296789;28;20176;-50
2023/05/03 13:55:44;;;;;;;1.55;1.00;;;;;;;;;;10298298;28;20073;-53
2023/05/03 14:00:44;;;;;;;1.98;0.90;;;;;;;;;;10298235;28;20034;-50
2023/05/03 14:05:45;;;;;;;1.13;1.00;;;;;;;;;;10321013;28;20015;-49
2023/05/03 14:10:46;;;;;;;1.25;1.15;;;;;;;;;;10309394;28;20026;-53
2023/05/03 14:15:46;;;;;;;1.55;1.10;;;;;;;;;;10317778;28;20018;-50
2023/05/03 14:20:49;;;;;;;3.15;1.20;;;;;;;;;;10306994;28;20104;-60
2023/05/03 14:25:51;;;;;;;3.95;1.10;;;;;;;;;;10299529;28;20389;-53
2023/05/03 14:30:51;;;;;;;1.35;1.25;;;;;;;;;;10311391;28;20031;-51
2023/05/03 14:35:52;;;;;;;0.90;0.90;;;;;;;;;;10315096;28;20034;-53
2023/05/03 14:40:52;;;;;;;1.00;0.90;;;;;;;;;;10306898;28;20046;-60
2023/05/03 14:45:53;;;;;;;1.10;1.00;;;;;;;;;;10296970;28;20070;-51
2023/05/03 14:50:55;;;;;;;2.50;0.90;;;;;;;;;;10312376;28;20401;-54
2023/05/03 14:55:56;;;;;;;1.67;1.10;;;;;;;;;;10303788;28;21515;-55
2023/05/03 15:00:57;;;;;;;2.72;1.02;;;;;;;;;;10327224;28;20031;-55
2023/05/03 15:05:59;;;;;;;1.00;0.90;;;;;;;;;;10318553;28;20030;-51
2023/05/03 15:11:00;;;;;;;1.27;0.93;;;;;;;;;;10304633;28;20468;-51
2023/05/03 15:16:00;;;;;;;3.70;1.00;;;;;;;;;;10325810;28;20027;-57
2023/05/03 15:21:02;;;;;;;0.90;0.90;;;;;;;;;;10294562;28;20069;-54
2023/05/03 15:26:03;;;;;;;1.02;0.90;;;;;;;;;;10293637;28;20035;-54
2023/05/03 15:31:04;;;;;;;2.13;1.30;;;;;;;;;;10306891;28;20027;-59
2023/05/03 15:36:08;;;;;;;1.92;1.00;;;;;;;;;;10295184;28;20026;-56
2023/05/03 15:41:08;;;;;;;1.40;1.17;;;;;;;;;;10297572;28;20081;-56
2023/05/03 15:46:09;;;;;;;2.67;1.00;;;;;;;;;;10299982;28;20054;-57
2023/05/03 15:51:10;;;;;;;1.00;1.00;;;;;;;;;;10300674;28;20466;-56
2023/05/03 15:56:10;;;;;;;1.27;1.08;;;;;;;;;;10308548;28;20363;-53
2023/05/03 16:01:12;;;;;;;1.65;1.00;;;;;;;;;;10312464;28;20440;-59
2023/05/03 16:06:16;;;;;;;0.85;0.82;;;;;;;;;;10296674;28;20122;-60
2023/05/03 16:11:17;;;;;;;1.15;1.05;;;;;;;;;;10311254;28;20122;-52
2023/05/03 16:16:17;;;;;;;1.27;0.95;;;;;;;;;;10326402;28;20042;-57
2023/05/03 16:21:18;;;;;;;1.35;1.23;;;;;;;;;;10311694;28;20042;-57
2023/05/03 16:26:18;;;;;;;0.90;0.90;;;;;;;;;;10304539;28;20028;-58
2023/05/03 16:31:19;;;;;;;0.90;0.90;;;;;;;;;;10302100;28;20092;-58
2023/05/03 16:36:20;;;;;;;0.80;0.80;;;;;;;;;;10300069;28;20042;-59
2023/05/03 16:41:20;;;;;;;1.20;0.90;;;;;;;;;;10310281;28;20137;-60
2023/05/03 16:46:21;;;;;;;0.98;0.98;;;;;;;;;;10306229;28;20045;-60
2023/05/03 16:51:22;;;;;;;3.78;1.10;;;;;;;;;;10290797;28;20513;-57
2023/05/03 16:56:23;;;;;;;3.47;0.95;;;;;;;;;;10291908;28;20061;-58
2023/05/03 17:01:24;;;;;;;5.15;1.23;;;;;;;;;;10319678;28;20038;-61
2023/05/03 17:06:26;;;;;;;1.90;1.20;;;;;;;;;;10311305;28;20034;-59
2023/05/03 17:11:26;;;;;;;3.88;1.27;;;;;;;;;;10311164;28;20482;-56
2023/05/03 17:16:27;;;;;;;2.00;1.30;;;;;;;;;;10308875;28;20027;-58
2023/05/03 17:21:28;;;;;;;3.70;1.45;;;;;;;;;;10295758;28;20073;-60
2023/05/03 17:26:30;;;;;;;8.20;1.30;;;;;;;;;;10318999;28;20470;-55
2023/05/03 17:31:30;;;;;;;6.38;1.30;;;;;;;;;;10303400;28;20393;-60
2023/05/03 17:36:31;;;;;;;4.63;1.40;;;;;;;;;;10308770;28;20023;-61
2023/05/03 17:41:35;;;;;;;6.20;1.52;;;;;;;;;;10316143;28;20030;-61
2023/05/03 17:46:37;;;;;;;1.83;1.35;;;;;;;;;;10308001;28;20467;-60
2023/05/03 17:51:37;;;;;;;8.30;2.08;;;;;;;;;;10298423;28;20022;-61
2023/05/03 17:56:38;;;;;;;3.63;1.33;;;;;;;;;;10309783;28;20034;-60
2023/05/03 18:01:38;;;;;;;5.32;1.38;;;;;;;;;;10301208;28;20514;-59
2023/05/03 18:06:39;;;;;;;8.95;1.48;;;;;;;;;;10310962;28;20023;-60
2023/05/03 18:11:40;;;;;;;2.70;1.30;;;;;;;;;;10301462;28;20026;-60
2023/05/03 18:16:40;;;;;;;7.50;1.60;;;;;;;;;;10303736;28;20031;-59
2023/05/03 18:21:41;;;;;;;6.32;1.67;;;;;;;;;;10306322;28;20597;-60
2023/05/03 18:26:42;;;;;;;4.82;1.55;;;;;;;;;;10299830;28;20096;-59
2023/05/03 18:31:42;;;;;;;3.88;1.75;;;;;;;;;;10294166;28;20031;-60
2023/05/03 18:36:43;;;;;;;4.15;1.90;;;;;;;;;;10305127;28;20081;-59
2023/05/03 18:41:43;;;;;;;4.05;2.13;;;;;;;;;;10291929;28;20019;-61
2023/05/03 18:46:44;;;;;;;6.63;2.22;;;;;;;;;;10314655;28;20055;-60
2023/05/03 18:51:44;;;;;;;7.07;1.63;;;;;;;;;;10313296;28;20030;-61
2023/05/03 18:56:45;;;;;;;8.50;2.63;;;;;;;;;;10316751;28;20037;-61
2023/05/03 19:01:46;;;;;;;2.10;1.58;;;;;;;;;;10308000;28;20030;-60
2023/05/03 19:06:47;;;;;;;4.80;1.75;;;;;;;;;;10317892;28;20077;-57
2023/05/03 19:11:49;;;;;;;3.78;1.70;;;;;;;;;;10313188;28;20030;-60
2023/05/03 19:16:49;;;;;;;1.90;1.40;;;;;;;;;;10323000;28;20539;-57
2023/05/03 19:21:50;;;;;;;6.57;1.77;;;;;;;;;;10315586;28;20030;-59
2023/05/03 19:26:51;;;;;;;5.60;1.73;;;;;;;;;;10310469;28;20036;-59
2023/05/03 19:31:53;;;;;;;7.80;2.03;;;;;;;;;;10316874;28;20413;-59
2023/05/03 19:36:54;;;;;;;3.75;1.55;;;;;;;;;;10307174;28;20034;-59
2023/05/03 19:41:55;;;;;;;3.25;1.60;;;;;;;;;;10319085;28;20041;-59
2023/05/03 19:46:56;;;;;;;2.17;1.60;;;;;;;;;;10317917;28;20051;-58
2023/05/03 19:51:56;;;;;;;3.20;1.35;;;;;;;;;;10303480;28;20049;-59
2023/05/03 19:57:00;;;;;;;2.53;1.63;;;;;;;;;;10315664;28;20042;-58
2023/05/03 20:02:01;;;;;;;4.18;1.50;;;;;;;;;;10301366;28;20089;-56
2023/05/03 20:07:02;;;;;;;3.10;1.70;;;;;;;;;;10312956;28;20034;-54
2023/05/03 20:12:04;;;;;;;6.57;1.50;;;;;;;;;;10309906;28;20038;-57
2023/05/03 20:17:05;;;;;;;2.33;1.48;;;;;;;;;;10290660;28;20038;-57
2023/05/03 20:22:06;;;;;;;3.22;1.50;;;;;;;;;;10318005;28;20478;-60
2023/05/03 20:27:06;;;;;;;2.53;1.42;;;;;;;;;;10315994;28;20030;-61
2023/05/03 20:32:07;;;;;;;4.75;1.52;;;;;;;;;;10308735;28;20037;-58
2023/05/03 20:37:08;;;;;;;7.28;2.33;;;;;;;;;;10302377;28;20038;-59
2023/05/03 20:42:09;;;;;;;3.50;1.77;;;;;;;;;;10307872;28;20031;-58
2023/05/03 20:47:10;;;;;;;2.10;1.58;;;;;;;;;;10261520;28;20054;-60
2023/05/03 20:52:11;;;;;;;4.97;1.40;;;;;;;;;;10250669;28;20053;-58
2023/05/03 20:57:12;;;;;;;3.03;1.60;;;;;;;;;;10256466;28;20078;-58
2023/05/03 21:02:13;;;;;;;5.70;1.60;;;;;;;;;;10270591;28;20078;-58
2023/05/03 21:07:13;;;;;;;4.47;1.40;;;;;;;;;;10272087;28;20027;-56
2023/05/03 21:12:14;;;;;;;4.65;1.55;;;;;;;;;;10268505;28;20050;-54
2023/05/03 21:17:14;;;;;;;8.30;1.90;;;;;;;;;;10254655;28;20728;-58
2023/05/03 21:22:15;;;;;;;3.47;1.38;;;;;;;;;;10271616;28;20857;-58
2023/05/03 21:27:18;;;;;;;7.38;1.58;;;;;;;;;;10265554;28;20023;-53
2023/05/03 21:32:18;;;;;;;3.53;1.48;;;;;;;;;;10266282;28;20031;-57
2023/05/03 21:37:19;;;;;;;4.72;1.55;;;;;;;;;;10267897;28;20031;-54
2023/05/03 21:42:19;;;;;;;2.42;1.45;;;;;;;;;;10265209;28;20039;-53
2023/05/03 21:47:20;;;;;;;3.17;1.40;;;;;;;;;;10309980;28;20097;-50
2023/05/03 21:52:21;;;;;;;4.35;1.30;;;;;;;;;;10305409;28;20023;-56
2023/05/03 21:57:21;;;;;;;3.10;1.90;;;;;;;;;;10312556;28;20030;-54
2023/05/03 22:02:22;;;;;;;7.70;1.58;;;;;;;;;;10303518;28;20019;-57
2023/05/03 22:07:23;;;;;;;2.78;1.60;;;;;;;;;;10319692;28;20073;-57
2023/05/03 22:12:24;;;;;;;4.30;1.60;;;;;;;;;;10322021;28;20154;-57
2023/05/03 22:17:26;;;;;;;2.22;1.50;;;;;;;;;;10309818;28;20097;-57
2023/05/03 22:22:26;;;;;;;3.15;1.13;;;;;;;;;;10300356;28;20037;-57
2023/05/03 22:27:27;;;;;;;1.40;1.25;;;;;;;;;;10309724;28;20029;-57
2023/05/03 22:32:28;;;;;;;2.72;1.42;;;;;;;;;;10318618;28;20034;-57
2023/05/03 22:37:28;;;;;;;3.58;1.20;;;;;;;;;;10304844;28;20493;-56
2023/05/03 22:42:29;;;;;;;1.50;1.40;;;;;;;;;;10319685;28;20506;-57
2023/05/03 22:47:29;;;;;;;1.52;1.20;;;;;;;;;;10326370;28;20518;-58
2023/05/03 22:52:30;;;;;;;1.55;1.30;;;;;;;;;;10313355;28;20026;-56
2023/05/03 22:57:31;;;;;;;1.67;1.23;;;;;;;;;;10297040;28;20154;-55
2023/05/03 23:02:31;;;;;;;2.28;1.10;;;;;;;;;;10304247;28;20150;-54
2023/05/03 23:07:32;;;;;;;2.15;1.20;;;;;;;;;;10312185;28;20316;-53
2023/05/03 23:12:33;;;;;;;1.13;1.02;;;;;;;;;;10303943;28;20174;-55
2023/05/03 23:17:33;;;;;;;3.30;1.30;;;;;;;;;;10315617;28;20026;-53
2023/05/03 23:22:34;;;;;;;3.53;1.20;;;;;;;;;;10313173;28;20471;-54
2023/05/03 23:27:35;;;;;;;2.90;1.30;;;;;;;;;;10320897;28;20210;-52
2023/05/03 23:32:35;;;;;;;4.55;1.33;;;;;;;;;;10317436;28;20029;-53
2023/05/03 23:37:36;;;;;;;2.42;1.55;;;;;;;;;;10327278;28;20109;-55
2023/05/03 23:42:38;;;;;;;2.53;1.30;;;;;;;;;;10321090;28;20271;-59
2023/05/03 23:47:39;;;;;;;1.58;1.23;;;;;;;;;;10319508;28;20037;-57
2023/05/03 23:52:40;;;;;;;1.33;1.15;;;;;;;;;;10322996;28;20027;-56
2023/05/03 23:57:41;;;;;;;2.28;1.20;;;;;;;;;;10322639;28;20033;-56
